sensor_id;sensor_type;location;lat;lon;timestamp;pressure;altitude;pressure_sealevel;temperature;humidity
69848;BME280;57143;55.940;37.496;2022-10-17T00:01:41;100384.59;;;6.17;100.00
69848;BME280;57143;55.940;37.496;2022-10-17T00:04:08;100372.66;;;6.11;100.00
69848;BME280;57143;55.940;37.496;2022-10-17T00:06:35;100378.56;;;6.15;100.00
69848;BME280;57143;55.940;37.496;2022-10-17T00:09:04;100382.09;;;6.15;100.00
69848;BME280;57143;55.940;37.496;2022-10-17T00:11:31;100369.31;;;6.09;100.00
69848;BME280;57143;55.940;37.496;2022-10-17T00:13:58;100376.34;;;6.18;100.00
69848;BME280;57143;55.940;37.496;2022-10-17T00:16:27;100375.69;;;6.16;100.00
69848;BME280;57143;55.940;37.496;2022-10-17T00:18:54;100372.84;;;6.18;100.00
69848;BME280;57143;55.940;37.496;2022-10-17T00:21:23;100360.56;;;6.15;100.00
69848;BME280;57143;55.940;37.496;2022-10-17T00:23:51;100358.53;;;6.17;100.00
69848;BME280;57143;55.940;37.496;2022-10-17T00:26:20;100355.19;;;6.15;100.00
69848;BME280;57143;55.940;37.496;2022-10-17T00:28:47;100350.81;;;6.14;100.00
69848;BME280;57143;55.940;37.496;2022-10-17T00:31:17;100308.50;;;5.92;100.00
69848;BME280;57143;55.940;37.496;2022-10-17T00:33:45;100334.19;;;6.11;100.00
69848;BME280;57143;55.940;37.496;2022-10-17T00:36:14;100277.75;;;5.87;100.00
69848;BME280;57143;55.940;37.496;2022-10-17T00:38:43;100328.09;;;6.17;100.00
69848;BME280;57143;55.940;37.496;2022-10-17T00:41:13;100321.72;;;6.10;100.00
69848;BME280;57143;55.940;37.496;2022-10-17T00:43:53;100321.72;;;6.18;100.00
69848;BME280;57143;55.940;37.496;2022-10-17T00:46:22;100318.84;;;6.19;100.00
69848;BME280;57143;55.940;37.496;2022-10-17T00:48:51;100296.66;;;6.09;100.00
69848;BME280;57143;55.940;37.496;2022-10-17T00:51:22;100311.44;;;6.21;100.00
69848;BME280;57143;55.940;37.496;2022-10-17T00:53:51;100310.75;;;6.19;100.00
69848;BME280;57143;55.940;37.496;2022-10-17T00:56:18;100279.38;;;6.04;100.00
69848;BME280;57143;55.940;37.496;2022-10-17T00:58:46;100303.50;;;6.20;100.00
69848;BME280;57143;55.940;37.496;2022-10-17T01:01:15;100282.38;;;6.09;100.00
69848;BME280;57143;55.940;37.496;2022-10-17T01:03:42;100280.66;;;6.16;100.00
69848;BME280;57143;55.940;37.496;2022-10-17T01:06:09;100283.84;;;6.19;100.00
69848;BME280;57143;55.940;37.496;2022-10-17T01:08:36;100278.09;;;6.22;100.00
69848;BME280;57143;55.940;37.496;2022-10-17T01:11:12;100274.75;;;6.20;100.00
69848;BME280;57143;55.940;37.496;2022-10-17T01:13:50;100251.44;;;6.05;100.00
69848;BME280;57143;55.940;37.496;2022-10-17T01:16:30;100252.47;;;6.04;100.00
69848;BME280;57143;55.940;37.496;2022-10-17T01:19:05;100255.06;;;6.20;100.00
69848;BME280;57143;55.940;37.496;2022-10-17T01:21:47;100256.56;;;6.22;100.00
69848;BME280;57143;55.940;37.496;2022-10-17T01:24:46;100250.16;;;6.23;100.00
69848;BME280;57143;55.940;37.496;2022-10-17T01:27:47;100240.97;;;6.18;100.00
69848;BME280;57143;55.940;37.496;2022-10-17T01:30:48;100195.84;;;5.89;100.00
69848;BME280;57143;55.940;37.496;2022-10-17T01:33:27;100221.94;;;6.19;100.00
69848;BME280;57143;55.940;37.496;2022-10-17T01:35:59;100215.41;;;6.14;100.00
69848;BME280;57143;55.940;37.496;2022-10-17T01:38:31;100177.34;;;5.94;100.00
69848;BME280;57143;55.940;37.496;2022-10-17T01:41:01;100174.94;;;6.07;100.00
69848;BME280;57143;55.940;37.496;2022-10-17T01:43:34;100189.16;;;6.16;100.00
69848;BME280;57143;55.940;37.496;2022-10-17T01:46:11;100161.16;;;6.02;100.00
69848;BME280;57143;55.940;37.496;2022-10-17T01:48:41;100147.38;;;5.97;100.00
69848;BME280;57143;55.940;37.496;2022-10-17T01:51:14;100169.66;;;6.14;100.00
69848;BME280;57143;55.940;37.496;2022-10-17T01:53:48;100156.72;;;6.09;100.00
69848;BME280;57143;55.940;37.496;2022-10-17T01:56:17;100072.91;;;5.67;100.00
69848;BME280;57143;55.940;37.496;2022-10-17T01:58:48;100148.63;;;6.17;100.00
69848;BME280;57143;55.940;37.496;2022-10-17T02:01:18;100143.41;;;6.16;100.00
69848;BME280;57143;55.940;37.496;2022-10-17T02:03:48;100120.81;;;6.02;100.00
69848;BME280;57143;55.940;37.496;2022-10-17T02:06:16;100136.03;;;6.10;100.00
69848;BME280;57143;55.940;37.496;2022-10-17T02:08:46;100136.59;;;6.05;100.00
69848;BME280;57143;55.940;37.496;2022-10-17T02:11:16;100125.34;;;6.02;100.00
69848;BME280;57143;55.940;37.496;2022-10-17T02:13:57;100159.78;;;6.06;100.00
69848;BME280;57143;55.940;37.496;2022-10-17T02:16:34;100294.03;;;5.77;100.00
69848;BME280;57143;55.940;37.496;2022-10-17T02:22:15;100320.44;;;5.90;100.00
69848;BME280;57143;55.940;37.496;2022-10-17T02:24:47;100349.84;;;6.07;100.00
69848;BME280;57143;55.940;37.496;2022-10-17T02:27:22;100348.16;;;5.98;100.00
69848;BME280;57143;55.940;37.496;2022-10-17T02:29:55;100353.19;;;6.01;100.00
69848;BME280;57143;55.940;37.496;2022-10-17T02:32:30;100347.84;;;5.93;100.00
69848;BME280;57143;55.940;37.496;2022-10-17T02:34:59;100337.25;;;5.92;100.00
69848;BME280;57143;55.940;37.496;2022-10-17T02:37:30;100352.38;;;5.93;100.00
69848;BME280;57143;55.940;37.496;2022-10-17T02:39:59;100337.25;;;5.92;100.00
69848;BME280;57143;55.940;37.496;2022-10-17T02:42:29;100321.44;;;5.80;100.00
69848;BME280;57143;55.940;37.496;2022-10-17T02:44:58;100323.97;;;5.82;100.00
69848;BME280;57143;55.940;37.496;2022-10-17T02:47:33;100253.00;;;5.36;100.00
69848;BME280;57143;55.940;37.496;2022-10-17T02:50:02;100327.34;;;5.84;100.00
69848;BME280;57143;55.940;37.496;2022-10-17T02:52:34;100323.00;;;5.83;100.00
69848;BME280;57143;55.940;37.496;2022-10-17T02:55:05;100303.63;;;5.71;100.00
69848;BME280;57143;55.940;37.496;2022-10-17T02:57:37;100309.34;;;5.76;100.00
69848;BME280;57143;55.940;37.496;2022-10-17T03:00:08;100305.16;;;5.74;100.00
69848;BME280;57143;55.940;37.496;2022-10-17T03:02:41;100310.84;;;5.79;100.00
69848;BME280;57143;55.940;37.496;2022-10-17T03:05:09;100308.84;;;5.81;100.00
69848;BME280;57143;55.940;37.496;2022-10-17T03:07:37;100306.16;;;5.81;100.00
69848;BME280;57143;55.940;37.496;2022-10-17T03:10:05;100270.06;;;5.67;100.00
69848;BME280;57143;55.940;37.496;2022-10-17T03:12:32;100310.00;;;5.78;100.00
69848;BME280;57143;55.940;37.496;2022-10-17T03:14:59;100296.75;;;5.77;100.00
69848;BME280;57143;55.940;37.496;2022-10-17T03:17:26;100279.75;;;5.76;100.00
69848;BME280;57143;55.940;37.496;2022-10-17T03:19:55;100285.97;;;5.77;100.00
69848;BME280;57143;55.940;37.496;2022-10-17T03:22:23;100272.72;;;5.75;100.00
69848;BME280;57143;55.940;37.496;2022-10-17T03:24:50;100268.00;;;5.77;100.00
69848;BME280;57143;55.940;37.496;2022-10-17T03:27:17;100278.59;;;5.79;100.00
69848;BME280;57143;55.940;37.496;2022-10-17T03:29:44;100252.22;;;5.66;100.00
69848;BME280;57143;55.940;37.496;2022-10-17T03:32:11;100269.84;;;5.77;100.00
69848;BME280;57143;55.940;37.496;2022-10-17T03:34:38;100233.28;;;5.52;100.00
69848;BME280;57143;55.940;37.496;2022-10-17T03:37:06;100232.44;;;5.51;100.00
69848;BME280;57143;55.940;37.496;2022-10-17T03:39:33;100260.59;;;5.71;100.00
69848;BME280;57143;55.940;37.496;2022-10-17T03:42:00;100244.19;;;5.58;100.00
69848;BME280;57143;55.940;37.496;2022-10-17T03:44:27;100249.19;;;5.69;100.00
69848;BME280;57143;55.940;37.496;2022-10-17T03:46:54;100257.75;;;5.73;100.00
69848;BME280;57143;55.940;37.496;2022-10-17T03:49:21;100249.53;;;5.74;100.00
69848;BME280;57143;55.940;37.496;2022-10-17T03:51:48;100241.09;;;5.77;100.00
69848;BME280;57143;55.940;37.496;2022-10-17T03:54:17;100228.16;;;5.81;100.00
69848;BME280;57143;55.940;37.496;2022-10-17T03:56:44;100202.16;;;5.65;100.00
69848;BME280;57143;55.940;37.496;2022-10-17T03:59:14;100227.31;;;5.80;100.00
69848;BME280;57143;55.940;37.496;2022-10-17T04:01:41;100222.09;;;5.87;100.00
69848;BME280;57143;55.940;37.496;2022-10-17T04:04:09;100229.84;;;5.90;100.00
69848;BME280;57143;55.940;37.496;2022-10-17T04:06:36;100236.88;;;5.91;100.00
69848;BME280;57143;55.940;37.496;2022-10-17T04:09:04;100222.41;;;5.92;100.00
69848;BME280;57143;55.940;37.496;2022-10-17T04:11:33;100197.41;;;5.75;100.00
69848;BME280;57143;55.940;37.496;2022-10-17T04:14:06;100216.34;;;5.98;100.00
69848;BME280;57143;55.940;37.496;2022-10-17T04:16:33;100203.41;;;5.94;100.00
69848;BME280;57143;55.940;37.496;2022-10-17T04:19:00;100207.59;;;5.96;100.00
69848;BME280;57143;55.940;37.496;2022-10-17T04:21:28;100125.59;;;5.45;100.00
69848;BME280;57143;55.940;37.496;2022-10-17T04:23:56;100201.69;;;6.01;100.00
69848;BME280;57143;55.940;37.496;2022-10-17T04:26:23;100194.28;;;6.03;100.00
69848;BME280;57143;55.940;37.496;2022-10-17T04:28:53;100192.25;;;6.05;100.00
69848;BME280;57143;55.940;37.496;2022-10-17T04:31:20;100160.22;;;5.87;100.00
69848;BME280;57143;55.940;37.496;2022-10-17T04:33:48;100190.03;;;6.08;100.00
69848;BME280;57143;55.940;37.496;2022-10-17T04:36:18;100171.56;;;6.05;100.00
69848;BME280;57143;55.940;37.496;2022-10-17T04:38:47;100182.94;;;6.15;100.00
69848;BME280;57143;55.940;37.496;2022-10-17T04:41:16;100190.34;;;6.13;100.00
69848;BME280;57143;55.940;37.496;2022-10-17T04:43:43;100132.97;;;5.82;100.00
69848;BME280;57143;55.940;37.496;2022-10-17T04:46:13;100109.34;;;5.69;100.00
69848;BME280;57143;55.940;37.496;2022-10-17T04:48:43;100117.75;;;5.74;100.00
69848;BME280;57143;55.940;37.496;2022-10-17T04:51:12;100192.16;;;6.21;100.00
69848;BME280;57143;55.940;37.496;2022-10-17T04:53:43;100102.66;;;5.65;100.00
69848;BME280;57143;55.940;37.496;2022-10-17T04:56:12;100190.13;;;6.23;100.00
69848;BME280;57143;55.940;37.496;2022-10-17T04:58:46;100139.47;;;6.04;100.00
69848;BME280;57143;55.940;37.496;2022-10-17T05:01:17;100086.72;;;5.64;100.00
69848;BME280;57143;55.940;37.496;2022-10-17T05:03:46;100179.38;;;6.23;100.00
69848;BME280;57143;55.940;37.496;2022-10-17T05:06:19;100061.75;;;5.47;100.00
69848;BME280;57143;55.940;37.496;2022-10-17T05:08:47;100143.34;;;6.01;100.00
69848;BME280;57143;55.940;37.496;2022-10-17T05:11:16;100161.78;;;6.12;100.00
69848;BME280;57143;55.940;37.496;2022-10-17T05:13:44;100154.22;;;6.08;100.00
69848;BME280;57143;55.940;37.496;2022-10-17T05:16:11;100139.28;;;6.05;100.00
69848;BME280;57143;55.940;37.496;2022-10-17T05:18:39;100118.28;;;6.01;100.00
69848;BME280;57143;55.940;37.496;2022-10-17T05:21:06;100142.16;;;6.04;100.00
69848;BME280;57143;55.940;37.496;2022-10-17T05:23:33;100146.44;;;6.13;100.00
69848;BME280;57143;55.940;37.496;2022-10-17T05:26:00;100097.84;;;5.92;100.00
69848;BME280;57143;55.940;37.496;2022-10-17T05:28:27;100079.31;;;5.97;100.00
69848;BME280;57143;55.940;37.496;2022-10-17T05:31:01;100016.84;;;6.24;100.00
69848;BME280;57143;55.940;37.496;2022-10-17T05:33:28;99937.38;;;5.76;100.00
69848;BME280;57143;55.940;37.496;2022-10-17T05:36:01;99952.97;;;6.03;100.00
69848;BME280;57143;55.940;37.496;2022-10-17T05:38:29;99998.88;;;6.39;100.00
69848;BME280;57143;55.940;37.496;2022-10-17T05:40:58;100001.84;;;6.44;100.00
69848;BME280;57143;55.940;37.496;2022-10-17T05:43:26;99991.91;;;6.44;100.00
69848;BME280;57143;55.940;37.496;2022-10-17T05:45:53;99972.41;;;6.42;100.00
69848;BME280;57143;55.940;37.496;2022-10-17T05:48:21;99985.53;;;6.60;100.00
69848;BME280;57143;55.940;37.496;2022-10-17T05:50:57;99901.38;;;6.00;100.00
69848;BME280;57143;55.940;37.496;2022-10-17T05:53:45;99906.84;;;6.06;100.00
69848;BME280;57143;55.940;37.496;2022-10-17T05:56:15;99900.53;;;5.99;100.00
69848;BME280;57143;55.940;37.496;2022-10-17T05:58:42;99982.00;;;6.45;100.00
69848;BME280;57143;55.940;37.496;2022-10-17T06:01:11;99960.38;;;6.38;100.00
69848;BME280;57143;55.940;37.496;2022-10-17T06:03:40;99988.78;;;6.55;100.00
69848;BME280;57143;55.940;37.496;2022-10-17T06:06:09;100001.44;;;6.69;100.00
69848;BME280;57143;55.940;37.496;2022-10-17T06:08:37;100010.88;;;6.80;100.00
69848;BME280;57143;55.940;37.496;2022-10-17T06:11:05;100013.94;;;6.77;100.00
69848;BME280;57143;55.940;37.496;2022-10-17T06:13:33;100005.13;;;6.68;100.00
69848;BME280;57143;55.940;37.496;2022-10-17T06:16:00;99979.13;;;6.61;100.00
69848;BME280;57143;55.940;37.496;2022-10-17T06:18:27;100003.38;;;6.75;100.00
69848;BME280;57143;55.940;37.496;2022-10-17T06:21:01;99988.69;;;6.63;100.00
69848;BME280;57143;55.940;37.496;2022-10-17T06:23:28;99986.09;;;6.55;100.00
69848;BME280;57143;55.940;37.496;2022-10-17T06:26:00;99998.25;;;6.66;100.00
69848;BME280;57143;55.940;37.496;2022-10-17T06:28:34;99997.31;;;6.73;100.00
69848;BME280;57143;55.940;37.496;2022-10-17T06:31:04;99999.47;;;6.78;100.00
69848;BME280;57143;55.940;37.496;2022-10-17T06:33:31;99990.09;;;6.74;100.00
69848;BME280;57143;55.940;37.496;2022-10-17T06:35:58;99972.25;;;6.73;100.00
69848;BME280;57143;55.940;37.496;2022-10-17T06:38:25;99968.16;;;6.77;100.00
69848;BME280;57143;55.940;37.496;2022-10-17T06:40:52;99928.88;;;6.68;100.00
69848;BME280;57143;55.940;37.496;2022-10-17T06:43:26;99925.34;;;6.67;100.00
69848;BME280;57143;55.940;37.496;2022-10-17T06:45:58;99868.84;;;6.38;100.00
69848;BME280;57143;55.940;37.496;2022-10-17T06:48:25;99938.78;;;6.96;100.00
69848;BME280;57143;55.940;37.496;2022-10-17T06:50:57;99944.06;;;7.04;100.00
69848;BME280;57143;55.940;37.496;2022-10-17T06:53:26;99946.72;;;7.19;100.00
69848;BME280;57143;55.940;37.496;2022-10-17T06:55:54;99909.16;;;6.96;100.00
69848;BME280;57143;55.940;37.496;2022-10-17T06:58:26;99947.25;;;7.29;100.00
69848;BME280;57143;55.940;37.496;2022-10-17T07:00:58;99940.22;;;7.28;100.00
69848;BME280;57143;55.940;37.496;2022-10-17T07:03:26;99927.50;;;7.07;100.00
69848;BME280;57143;55.940;37.496;2022-10-17T07:05:57;99948.59;;;7.19;100.00
69848;BME280;57143;55.940;37.496;2022-10-17T07:08:25;99966.97;;;7.30;100.00
69848;BME280;57143;55.940;37.496;2022-10-17T07:10:52;99952.25;;;7.32;100.00
69848;BME280;57143;55.940;37.496;2022-10-17T07:13:20;99902.44;;;7.07;100.00
69848;BME280;57143;55.940;37.496;2022-10-17T07:15:48;99818.09;;;6.56;100.00
69848;BME280;57143;55.940;37.496;2022-10-17T07:18:17;99868.75;;;6.82;100.00
69848;BME280;57143;55.940;37.496;2022-10-17T07:20:51;99820.53;;;6.51;100.00
69848;BME280;57143;55.940;37.496;2022-10-17T07:23:19;99955.94;;;7.25;100.00
69848;BME280;57143;55.940;37.496;2022-10-17T07:25:46;99944.97;;;7.12;100.00
69848;BME280;57143;55.940;37.496;2022-10-17T07:28:13;99938.78;;;7.32;100.00
69848;BME280;57143;55.940;37.496;2022-10-17T07:30:42;99911.31;;;7.22;100.00
69848;BME280;57143;55.940;37.496;2022-10-17T07:33:09;99796.28;;;6.66;100.00
69848;BME280;57143;55.940;37.496;2022-10-17T07:35:38;99908.19;;;7.40;100.00
69848;BME280;57143;55.940;37.496;2022-10-17T07:38:06;99910.03;;;7.39;100.00
69848;BME280;57143;55.940;37.496;2022-10-17T07:40:33;99910.94;;;7.46;100.00
69848;BME280;57143;55.940;37.496;2022-10-17T07:43:00;99915.47;;;7.46;100.00
69848;BME280;57143;55.940;37.496;2022-10-17T07:45:27;99919.22;;;7.45;100.00
69848;BME280;57143;55.940;37.496;2022-10-17T07:47:59;99916.13;;;7.48;100.00
69848;BME280;57143;55.940;37.496;2022-10-17T07:50:26;99860.91;;;7.01;100.00
69848;BME280;57143;55.940;37.496;2022-10-17T07:52:55;99931.84;;;7.44;100.00
69848;BME280;57143;55.940;37.496;2022-10-17T07:55:22;99933.38;;;7.32;100.00
69848;BME280;57143;55.940;37.496;2022-10-17T07:57:49;99952.41;;;7.45;100.00
69848;BME280;57143;55.940;37.496;2022-10-17T08:00:17;99921.66;;;7.40;100.00
69848;BME280;57143;55.940;37.496;2022-10-17T08:02:44;99942.22;;;7.62;100.00
69848;BME280;57143;55.940;37.496;2022-10-17T08:05:12;99948.19;;;7.57;100.00
69848;BME280;57143;55.940;37.496;2022-10-17T08:07:42;99919.47;;;7.50;100.00
69848;BME280;57143;55.940;37.496;2022-10-17T08:10:13;99922.13;;;7.64;100.00
69848;BME280;57143;55.940;37.496;2022-10-17T08:12:40;99906.00;;;7.71;100.00
69848;BME280;57143;55.940;37.496;2022-10-17T08:15:11;99912.31;;;7.84;100.00
69848;BME280;57143;55.940;37.496;2022-10-17T08:17:38;99917.13;;;7.89;100.00
69848;BME280;57143;55.940;37.496;2022-10-17T08:20:09;99920.66;;;7.89;100.00
69848;BME280;57143;55.940;37.496;2022-10-17T08:22:37;99902.00;;;7.67;100.00
69848;BME280;57143;55.940;37.496;2022-10-17T08:25:05;99924.78;;;7.85;100.00
69848;BME280;57143;55.940;37.496;2022-10-17T08:27:36;99907.19;;;7.68;100.00
69848;BME280;57143;55.940;37.496;2022-10-17T08:30:04;99897.88;;;7.71;100.00
69848;BME280;57143;55.940;37.496;2022-10-17T08:32:34;99904.53;;;7.75;100.00
69848;BME280;57143;55.940;37.496;2022-10-17T08:35:01;99867.13;;;7.65;100.00
69848;BME280;57143;55.940;37.496;2022-10-17T08:37:29;99869.16;;;7.84;100.00
69848;BME280;57143;55.940;37.496;2022-10-17T08:39:57;99861.50;;;7.88;100.00
69848;BME280;57143;55.940;37.496;2022-10-17T08:42:48;99871.81;;;8.05;100.00
69848;BME280;57143;55.940;37.496;2022-10-17T08:45:26;99874.09;;;8.08;100.00
69848;BME280;57143;55.940;37.496;2022-10-17T08:47:59;99900.41;;;8.00;100.00
69848;BME280;57143;55.940;37.496;2022-10-17T08:50:44;99809.09;;;7.48;100.00
69848;BME280;57143;55.940;37.496;2022-10-17T08:53:19;99875.91;;;7.74;100.00
69848;BME280;57143;55.940;37.496;2022-10-17T08:55:48;99888.88;;;7.85;100.00
69848;BME280;57143;55.940;37.496;2022-10-17T08:58:22;99831.88;;;7.46;100.00
69848;BME280;57143;55.940;37.496;2022-10-17T09:01:00;99874.00;;;7.68;100.00
69848;BME280;57143;55.940;37.496;2022-10-17T09:03:50;99829.84;;;7.27;100.00
69848;BME280;57143;55.940;37.496;2022-10-17T09:06:21;99851.47;;;7.12;100.00
69848;BME280;57143;55.940;37.496;2022-10-17T09:09:11;99882.78;;;7.13;100.00
69848;BME280;57143;55.940;37.496;2022-10-17T09:11:54;99879.44;;;7.11;100.00
69848;BME280;57143;55.940;37.496;2022-10-17T09:14:35;99901.47;;;7.15;100.00
69848;BME280;57143;55.940;37.496;2022-10-17T09:17:18;99886.47;;;7.06;100.00
69848;BME280;57143;55.940;37.496;2022-10-17T09:19:54;99874.63;;;7.07;100.00
69848;BME280;57143;55.940;37.496;2022-10-17T09:22:27;99846.19;;;6.83;100.00
69848;BME280;57143;55.940;37.496;2022-10-17T09:24:58;99827.00;;;6.92;100.00
69848;BME280;57143;55.940;37.496;2022-10-17T09:27:33;99725.56;;;6.57;100.00
69848;BME280;57143;55.940;37.496;2022-10-17T09:30:17;99815.81;;;7.10;100.00
69848;BME280;57143;55.940;37.496;2022-10-17T09:32:47;99810.41;;;7.10;100.00
69848;BME280;57143;55.940;37.496;2022-10-17T09:35:14;99799.63;;;7.10;100.00
69848;BME280;57143;55.940;37.496;2022-10-17T09:37:44;99807.72;;;7.10;100.00
69848;BME280;57143;55.940;37.496;2022-10-17T09:40:19;99807.91;;;7.09;100.00
69848;BME280;57143;55.940;37.496;2022-10-17T09:42:48;99779.16;;;7.16;100.00
69848;BME280;57143;55.940;37.496;2022-10-17T09:45:19;99769.34;;;7.08;100.00
69848;BME280;57143;55.940;37.496;2022-10-17T09:47:55;99768.03;;;7.04;100.00
69848;BME280;57143;55.940;37.496;2022-10-17T09:50:26;99768.84;;;6.98;100.00
69848;BME280;57143;55.940;37.496;2022-10-17T09:52:55;99755.81;;;7.01;100.00
69848;BME280;57143;55.940;37.496;2022-10-17T09:55:36;99757.47;;;7.02;100.00
69848;BME280;57143;55.940;37.496;2022-10-17T09:58:08;99754.22;;;7.07;100.00
69848;BME280;57143;55.940;37.496;2022-10-17T10:00:39;99712.66;;;6.95;100.00
69848;BME280;57143;55.940;37.496;2022-10-17T10:03:13;99705.81;;;6.99;100.00
69848;BME280;57143;55.940;37.496;2022-10-17T10:05:57;99725.91;;;6.96;100.00
69848;BME280;57143;55.940;37.496;2022-10-17T10:08:27;99708.97;;;7.02;100.00
69848;BME280;57143;55.940;37.496;2022-10-17T10:10:59;99717.69;;;7.04;100.00
69848;BME280;57143;55.940;37.496;2022-10-17T10:13:29;99718.78;;;7.10;100.00
69848;BME280;57143;55.940;37.496;2022-10-17T10:18:50;99697.66;;;7.14;100.00
69848;BME280;57143;55.940;37.496;2022-10-17T10:21:18;99696.47;;;7.16;100.00
69848;BME280;57143;55.940;37.496;2022-10-17T10:24:04;99689.97;;;7.11;100.00
69848;BME280;57143;55.940;37.496;2022-10-17T10:26:37;99692.91;;;7.16;100.00
69848;BME280;57143;55.940;37.496;2022-10-17T10:29:17;99693.34;;;7.19;100.00
69848;BME280;57143;55.940;37.496;2022-10-17T10:31:46;99704.47;;;7.10;100.00
69848;BME280;57143;55.940;37.496;2022-10-17T10:34:18;99618.09;;;6.62;100.00
69848;BME280;57143;55.940;37.496;2022-10-17T10:36:57;99654.50;;;7.07;100.00
69848;BME280;57143;55.940;37.496;2022-10-17T10:39:40;99660.22;;;7.25;100.00
69848;BME280;57143;55.940;37.496;2022-10-17T10:42:17;99671.19;;;7.24;100.00
69848;BME280;57143;55.940;37.496;2022-10-17T10:44:46;99649.59;;;7.17;100.00
69848;BME280;57143;55.940;37.496;2022-10-17T10:47:20;99625.94;;;7.13;100.00
69848;BME280;57143;55.940;37.496;2022-10-17T10:49:52;99648.00;;;7.29;100.00
69848;BME280;57143;55.940;37.496;2022-10-17T10:52:34;99611.97;;;7.02;100.00
69848;BME280;57143;55.940;37.496;2022-10-17T10:55:16;99616.81;;;7.14;100.00
69848;BME280;57143;55.940;37.496;2022-10-17T10:57:46;99647.66;;;7.39;100.00
69848;BME280;57143;55.940;37.496;2022-10-17T11:00:18;99635.63;;;7.35;100.00
69848;BME280;57143;55.940;37.496;2022-10-17T11:02:53;99610.63;;;7.20;100.00
69848;BME280;57143;55.940;37.496;2022-10-17T11:05:36;99655.06;;;7.30;100.00
69848;BME280;57143;55.940;37.496;2022-10-17T11:08:11;99649.88;;;7.29;100.00
69848;BME280;57143;55.940;37.496;2022-10-17T11:10:54;99645.59;;;7.41;100.00
69848;BME280;57143;55.940;37.496;2022-10-17T11:13:25;99654.13;;;7.44;100.00
69848;BME280;57143;55.940;37.496;2022-10-17T11:15:58;99645.75;;;7.33;100.00
69848;BME280;57143;55.940;37.496;2022-10-17T11:18:29;99634.09;;;7.26;100.00
69848;BME280;57143;55.940;37.496;2022-10-17T11:21:04;99645.34;;;7.36;100.00
69848;BME280;57143;55.940;37.496;2022-10-17T11:23:43;99625.63;;;7.35;100.00
69848;BME280;57143;55.940;37.496;2022-10-17T11:26:15;99584.97;;;7.30;100.00
69848;BME280;57143;55.940;37.496;2022-10-17T11:28:50;99596.19;;;7.34;100.00
69848;BME280;57143;55.940;37.496;2022-10-17T11:31:19;99572.34;;;7.31;100.00
69848;BME280;57143;55.940;37.496;2022-10-17T11:33:51;99603.50;;;7.40;100.00
69848;BME280;57143;55.940;37.496;2022-10-17T11:36:24;99586.50;;;7.46;100.00
69848;BME280;57143;55.940;37.496;2022-10-17T11:38:55;99581.31;;;7.44;100.00
69848;BME280;57143;55.940;37.496;2022-10-17T11:41:30;99527.41;;;7.03;100.00
69848;BME280;57143;55.940;37.496;2022-10-17T11:44:04;99554.72;;;7.35;100.00
69848;BME280;57143;55.940;37.496;2022-10-17T11:46:34;99547.84;;;7.26;100.00
69848;BME280;57143;55.940;37.496;2022-10-17T11:49:06;99543.78;;;7.43;100.00
69848;BME280;57143;55.940;37.496;2022-10-17T11:51:44;99539.00;;;7.38;100.00
69848;BME280;57143;55.940;37.496;2022-10-17T11:54:16;99530.25;;;7.30;100.00
69848;BME280;57143;55.940;37.496;2022-10-17T11:56:48;99523.00;;;7.37;100.00
69848;BME280;57143;55.940;37.496;2022-10-17T11:59:43;99502.88;;;7.33;100.00
69848;BME280;57143;55.940;37.496;2022-10-17T12:02:18;99520.13;;;7.45;100.00
69848;BME280;57143;55.940;37.496;2022-10-17T12:04:54;99521.34;;;7.42;100.00
69848;BME280;57143;55.940;37.496;2022-10-17T12:07:36;99526.94;;;7.34;100.00
69848;BME280;57143;55.940;37.496;2022-10-17T12:10:17;99556.03;;;7.45;100.00
69848;BME280;57143;55.940;37.496;2022-10-17T12:12:47;99531.97;;;7.44;100.00
69848;BME280;57143;55.940;37.496;2022-10-17T12:15:29;99500.16;;;7.26;100.00
69848;BME280;57143;55.940;37.496;2022-10-17T12:17:57;99492.97;;;7.46;100.00
69848;BME280;57143;55.940;37.496;2022-10-17T12:20:32;99367.78;;;6.88;100.00
69848;BME280;57143;55.940;37.496;2022-10-17T12:23:19;99494.22;;;7.50;100.00
69848;BME280;57143;55.940;37.496;2022-10-17T12:25:51;99488.84;;;7.50;100.00
69848;BME280;57143;55.940;37.496;2022-10-17T12:28:24;99451.47;;;7.41;100.00
69848;BME280;57143;55.940;37.496;2022-10-17T12:30:57;99482.84;;;7.61;100.00
69848;BME280;57143;55.940;37.496;2022-10-17T12:33:30;99447.47;;;7.30;100.00
69848;BME280;57143;55.940;37.496;2022-10-17T12:42:49;99497.38;;;7.67;100.00
69848;BME280;57143;55.940;37.496;2022-10-17T12:45:45;99513.78;;;7.65;100.00
69848;BME280;57143;55.940;37.496;2022-10-17T12:48:13;99518.75;;;7.68;100.00
69848;BME280;57143;55.940;37.496;2022-10-17T12:51:04;99524.13;;;7.62;100.00
69848;BME280;57143;55.940;37.496;2022-10-17T12:53:37;99513.78;;;7.65;100.00
69848;BME280;57143;55.940;37.496;2022-10-17T12:56:07;99520.00;;;7.66;100.00
69848;BME280;57143;55.940;37.496;2022-10-17T12:58:35;99517.69;;;7.56;100.00
69848;BME280;57143;55.940;37.496;2022-10-17T13:01:03;99491.69;;;7.36;100.00
69848;BME280;57143;55.940;37.496;2022-10-17T13:03:40;99522.28;;;7.62;100.00
69848;BME280;57143;55.940;37.496;2022-10-17T13:06:17;99527.47;;;7.64;100.00
69848;BME280;57143;55.940;37.496;2022-10-17T13:08:49;99505.44;;;7.54;100.00
69848;BME280;57143;55.940;37.496;2022-10-17T13:11:21;99540.31;;;7.68;100.00
69848;BME280;57143;55.940;37.496;2022-10-17T13:13:51;99511.50;;;7.62;100.00
69848;BME280;57143;55.940;37.496;2022-10-17T13:16:29;99510.88;;;7.73;100.00
69848;BME280;57143;55.940;37.496;2022-10-17T13:18:57;99489.28;;;7.60;100.00
69848;BME280;57143;55.940;37.496;2022-10-17T13:21:26;99496.09;;;7.63;100.00